sensor_id;sensor_type;location;lat;lon;timestamp;temperature;humidity
23259;DHT22;11798;51.528;7.240;2023-06-14T00:00:50;17.50;99.90
23259;DHT22;11798;51.528;7.240;2023-06-14T00:03:17;17.50;99.90
23259;DHT22;11798;51.528;7.240;2023-06-14T00:05:43;17.50;99.90
23259;DHT22;11798;51.528;7.240;2023-06-14T00:08:09;17.50;99.90
23259;DHT22;11798;51.528;7.240;2023-06-14T00:10:35;17.50;99.90
23259;DHT22;11798;51.528;7.240;2023-06-14T00:13:01;17.60;99.90
23259;DHT22;11798;51.528;7.240;2023-06-14T00:15:26;17.50;99.90
23259;DHT22;11798;51.528;7.240;2023-06-14T00:17:53;17.50;99.90
23259;DHT22;11798;51.528;7.240;2023-06-14T00:20:20;17.50;99.90
23259;DHT22;11798;51.528;7.240;2023-06-14T00:22:46;17.50;99.90
23259;DHT22;11798;51.528;7.240;2023-06-14T00:25:11;17.50;99.90
23259;DHT22;11798;51.528;7.240;2023-06-14T00:27:37;17.50;99.90
23259;DHT22;11798;51.528;7.240;2023-06-14T00:30:02;17.50;99.90
23259;DHT22;11798;51.528;7.240;2023-06-14T00:32:28;17.50;99.90
23259;DHT22;11798;51.528;7.240;2023-06-14T00:34:53;17.50;99.90
23259;DHT22;11798;51.528;7.240;2023-06-14T00:37:19;17.50;99.90
23259;DHT22;11798;51.528;7.240;2023-06-14T00:39:44;17.40;99.90
23259;DHT22;11798;51.528;7.240;2023-06-14T00:42:10;17.40;99.90
23259;DHT22;11798;51.528;7.240;2023-06-14T00:44:35;17.40;99.90
23259;DHT22;11798;51.528;7.240;2023-06-14T00:47:01;17.40;99.90
23259;DHT22;11798;51.528;7.240;2023-06-14T00:49:27;17.40;99.90
23259;DHT22;11798;51.528;7.240;2023-06-14T00:51:53;17.30;99.90
23259;DHT22;11798;51.528;7.240;2023-06-14T00:54:19;17.30;99.90
23259;DHT22;11798;51.528;7.240;2023-06-14T00:56:44;17.30;99.90
23259;DHT22;11798;51.528;7.240;2023-06-14T00:59:10;17.30;99.90
23259;DHT22;11798;51.528;7.240;2023-06-14T01:01:36;17.30;99.90
23259;DHT22;11798;51.528;7.240;2023-06-14T01:04:02;17.30;99.90
23259;DHT22;11798;51.528;7.240;2023-06-14T01:11:25;17.20;99.90
23259;DHT22;11798;51.528;7.240;2023-06-14T01:13:53;17.20;99.90
23259;DHT22;11798;51.528;7.240;2023-06-14T01:16:19;17.20;99.90
23259;DHT22;11798;51.528;7.240;2023-06-14T01:18:45;17.20;99.90
23259;DHT22;11798;51.528;7.240;2023-06-14T01:21:20;17.20;99.90
23259;DHT22;11798;51.528;7.240;2023-06-14T01:23:45;17.10;99.90
23259;DHT22;11798;51.528;7.240;2023-06-14T01:26:13;17.10;99.90
23259;DHT22;11798;51.528;7.240;2023-06-14T01:28:41;17.10;99.90
23259;DHT22;11798;51.528;7.240;2023-06-14T01:31:06;17.10;99.90
23259;DHT22;11798;51.528;7.240;2023-06-14T01:33:33;17.10;99.90
23259;DHT22;11798;51.528;7.240;2023-06-14T01:35:58;17.00;99.90
23259;DHT22;11798;51.528;7.240;2023-06-14T01:38:25;17.00;99.90
23259;DHT22;11798;51.528;7.240;2023-06-14T01:40:51;16.90;99.90
23259;DHT22;11798;51.528;7.240;2023-06-14T01:43:18;16.90;99.90
23259;DHT22;11798;51.528;7.240;2023-06-14T01:45:44;16.80;99.90
23259;DHT22;11798;51.528;7.240;2023-06-14T01:48:10;16.80;99.90
23259;DHT22;11798;51.528;7.240;2023-06-14T01:50:36;16.80;99.90
23259;DHT22;11798;51.528;7.240;2023-06-14T01:53:02;16.80;99.90
23259;DHT22;11798;51.528;7.240;2023-06-14T01:55:27;16.80;99.90
23259;DHT22;11798;51.528;7.240;2023-06-14T01:57:53;16.80;99.90
23259;DHT22;11798;51.528;7.240;2023-06-14T02:00:19;16.70;99.90
23259;DHT22;11798;51.528;7.240;2023-06-14T02:02:45;16.70;99.90
23259;DHT22;11798;51.528;7.240;2023-06-14T02:05:11;16.70;99.90
23259;DHT22;11798;51.528;7.240;2023-06-14T02:07:36;16.60;99.90
23259;DHT22;11798;51.528;7.240;2023-06-14T02:10:02;16.60;99.90
23259;DHT22;11798;51.528;7.240;2023-06-14T02:12:28;16.60;99.90
23259;DHT22;11798;51.528;7.240;2023-06-14T02:14:53;16.50;99.90
23259;DHT22;11798;51.528;7.240;2023-06-14T02:17:19;16.50;99.90
23259;DHT22;11798;51.528;7.240;2023-06-14T02:19:45;16.40;99.90
23259;DHT22;11798;51.528;7.240;2023-06-14T02:22:11;16.40;99.90
23259;DHT22;11798;51.528;7.240;2023-06-14T02:24:36;16.40;99.90
23259;DHT22;11798;51.528;7.240;2023-06-14T02:27:02;16.30;99.90
23259;DHT22;11798;51.528;7.240;2023-06-14T02:29:28;16.30;99.90
23259;DHT22;11798;51.528;7.240;2023-06-14T02:31:54;16.30;99.90
23259;DHT22;11798;51.528;7.240;2023-06-14T02:34:19;16.30;99.90
23259;DHT22;11798;51.528;7.240;2023-06-14T02:36:47;16.20;99.90
23259;DHT22;11798;51.528;7.240;2023-06-14T02:39:13;16.20;99.90
23259;DHT22;11798;51.528;7.240;2023-06-14T02:41:38;16.10;99.90
23259;DHT22;11798;51.528;7.240;2023-06-14T02:44:04;16.10;99.90
23259;DHT22;11798;51.528;7.240;2023-06-14T02:46:30;16.10;99.90
23259;DHT22;11798;51.528;7.240;2023-06-14T02:48:55;16.10;99.90
23259;DHT22;11798;51.528;7.240;2023-06-14T02:51:20;16.10;99.90
23259;DHT22;11798;51.528;7.240;2023-06-14T02:53:46;16.10;99.90
23259;DHT22;11798;51.528;7.240;2023-06-14T02:56:11;16.00;99.90
23259;DHT22;11798;51.528;7.240;2023-06-14T02:58:37;16.00;99.90
23259;DHT22;11798;51.528;7.240;2023-06-14T03:01:04;16.00;99.90
23259;DHT22;11798;51.528;7.240;2023-06-14T03:03:30;16.00;99.90
23259;DHT22;11798;51.528;7.240;2023-06-14T03:05:56;16.00;99.90
23259;DHT22;11798;51.528;7.240;2023-06-14T03:08:22;15.90;99.90
23259;DHT22;11798;51.528;7.240;2023-06-14T03:10:52;15.90;99.90
23259;DHT22;11798;51.528;7.240;2023-06-14T03:13:18;15.90;99.90
23259;DHT22;11798;51.528;7.240;2023-06-14T03:15:47;15.80;99.90
23259;DHT22;11798;51.528;7.240;2023-06-14T03:18:14;15.80;99.90
23259;DHT22;11798;51.528;7.240;2023-06-14T03:20:41;15.80;99.90
23259;DHT22;11798;51.528;7.240;2023-06-14T03:23:08;15.80;99.90
23259;DHT22;11798;51.528;7.240;2023-06-14T03:25:33;15.80;99.90
23259;DHT22;11798;51.528;7.240;2023-06-14T03:28:01;15.80;99.90
23259;DHT22;11798;51.528;7.240;2023-06-14T03:30:26;15.80;99.90
23259;DHT22;11798;51.528;7.240;2023-06-14T03:32:52;15.80;99.90
23259;DHT22;11798;51.528;7.240;2023-06-14T03:35:18;15.80;99.90
23259;DHT22;11798;51.528;7.240;2023-06-14T03:37:45;15.80;99.90
23259;DHT22;11798;51.528;7.240;2023-06-14T03:40:12;15.80;99.90
23259;DHT22;11798;51.528;7.240;2023-06-14T03:42:38;15.80;99.90
23259;DHT22;11798;51.528;7.240;2023-06-14T03:45:05;15.70;99.90
23259;DHT22;11798;51.528;7.240;2023-06-14T03:47:31;15.70;99.90
23259;DHT22;11798;51.528;7.240;2023-06-14T03:49:57;15.70;99.90
23259;DHT22;11798;51.528;7.240;2023-06-14T03:52:22;15.60;99.90
23259;DHT22;11798;51.528;7.240;2023-06-14T03:54:48;15.60;99.90
23259;DHT22;11798;51.528;7.240;2023-06-14T03:57:14;15.70;99.90
23259;DHT22;11798;51.528;7.240;2023-06-14T03:59:40;15.60;99.90
23259;DHT22;11798;51.528;7.240;2023-06-14T04:02:06;15.60;99.90
23259;DHT22;11798;51.528;7.240;2023-06-14T04:04:32;15.60;99.90
23259;DHT22;11798;51.528;7.240;2023-06-14T04:06:58;15.60;99.90
23259;DHT22;11798;51.528;7.240;2023-06-14T04:09:25;15.60;99.90
23259;DHT22;11798;51.528;7.240;2023-06-14T04:11:52;15.60;99.90
23259;DHT22;11798;51.528;7.240;2023-06-14T04:14:18;15.50;99.90
23259;DHT22;11798;51.528;7.240;2023-06-14T04:16:43;15.60;99.90
23259;DHT22;11798;51.528;7.240;2023-06-14T04:19:09;15.50;99.90
23259;DHT22;11798;51.528;7.240;2023-06-14T04:21:34;15.60;99.90
23259;DHT22;11798;51.528;7.240;2023-06-14T04:24:00;15.60;99.90
23259;DHT22;11798;51.528;7.240;2023-06-14T04:26:26;15.60;99.90
23259;DHT22;11798;51.528;7.240;2023-06-14T04:28:55;15.60;99.90
23259;DHT22;11798;51.528;7.240;2023-06-14T04:31:22;15.60;99.90
23259;DHT22;11798;51.528;7.240;2023-06-14T04:33:50;15.60;99.90
23259;DHT22;11798;51.528;7.240;2023-06-14T04:36:18;15.60;99.90
23259;DHT22;11798;51.528;7.240;2023-06-14T04:38:44;15.60;99.90
23259;DHT22;11798;51.528;7.240;2023-06-14T04:41:10;15.60;99.90
23259;DHT22;11798;51.528;7.240;2023-06-14T04:43:37;15.70;99.90
23259;DHT22;11798;51.528;7.240;2023-06-14T04:46:04;15.70;99.90
23259;DHT22;11798;51.528;7.240;2023-06-14T04:48:31;15.70;99.90
23259;DHT22;11798;51.528;7.240;2023-06-14T04:50:57;15.80;99.90
23259;DHT22;11798;51.528;7.240;2023-06-14T04:53:23;15.80;99.90
23259;DHT22;11798;51.528;7.240;2023-06-14T04:55:48;15.80;99.90
23259;DHT22;11798;51.528;7.240;2023-06-14T04:58:15;15.80;99.90
23259;DHT22;11798;51.528;7.240;2023-06-14T05:00:41;15.90;99.90
23259;DHT22;11798;51.528;7.240;2023-06-14T05:03:08;16.00;99.90
23259;DHT22;11798;51.528;7.240;2023-06-14T05:05:34;16.00;99.90
23259;DHT22;11798;51.528;7.240;2023-06-14T05:07:59;16.00;99.90
23259;DHT22;11798;51.528;7.240;2023-06-14T05:10:25;16.10;99.90
23259;DHT22;11798;51.528;7.240;2023-06-14T05:12:51;16.20;99.90
23259;DHT22;11798;51.528;7.240;2023-06-14T05:15:18;16.10;99.90
23259;DHT22;11798;51.528;7.240;2023-06-14T05:17:45;16.20;99.90
23259;DHT22;11798;51.528;7.240;2023-06-14T05:20:13;16.30;99.90
23259;DHT22;11798;51.528;7.240;2023-06-14T05:22:38;16.40;99.90
23259;DHT22;11798;51.528;7.240;2023-06-14T05:25:04;16.40;99.90
23259;DHT22;11798;51.528;7.240;2023-06-14T05:27:30;16.50;99.90
23259;DHT22;11798;51.528;7.240;2023-06-14T05:29:56;16.60;99.90
23259;DHT22;11798;51.528;7.240;2023-06-14T05:32:23;16.70;99.90
23259;DHT22;11798;51.528;7.240;2023-06-14T05:34:49;16.80;99.90
23259;DHT22;11798;51.528;7.240;2023-06-14T05:37:15;16.90;99.90
23259;DHT22;11798;51.528;7.240;2023-06-14T05:39:42;17.00;99.90
23259;DHT22;11798;51.528;7.240;2023-06-14T05:42:07;17.00;99.90
23259;DHT22;11798;51.528;7.240;2023-06-14T05:44:33;17.10;99.90
23259;DHT22;11798;51.528;7.240;2023-06-14T05:46:58;17.20;99.90
23259;DHT22;11798;51.528;7.240;2023-06-14T05:49:24;17.40;99.90
23259;DHT22;11798;51.528;7.240;2023-06-14T05:51:50;17.40;99.90
23259;DHT22;11798;51.528;7.240;2023-06-14T05:54:15;17.40;99.90
23259;DHT22;11798;51.528;7.240;2023-06-14T05:56:41;17.60;99.90
23259;DHT22;11798;51.528;7.240;2023-06-14T05:59:07;17.70;99.90
23259;DHT22;11798;51.528;7.240;2023-06-14T06:01:33;17.90;99.90
23259;DHT22;11798;51.528;7.240;2023-06-14T06:03:59;18.00;99.90
23259;DHT22;11798;51.528;7.240;2023-06-14T06:06:24;18.10;99.90
23259;DHT22;11798;51.528;7.240;2023-06-14T06:08:50;18.10;99.90
23259;DHT22;11798;51.528;7.240;2023-06-14T06:11:16;18.10;99.90
23259;DHT22;11798;51.528;7.240;2023-06-14T06:13:41;18.20;99.90
23259;DHT22;11798;51.528;7.240;2023-06-14T06:16:07;18.30;99.90
23259;DHT22;11798;51.528;7.240;2023-06-14T06:18:32;18.30;99.90
23259;DHT22;11798;51.528;7.240;2023-06-14T06:20:58;18.40;99.90
23259;DHT22;11798;51.528;7.240;2023-06-14T06:23:23;18.60;99.90
23259;DHT22;11798;51.528;7.240;2023-06-14T06:25:49;18.60;99.90
23259;DHT22;11798;51.528;7.240;2023-06-14T06:28:14;18.70;99.90
23259;DHT22;11798;51.528;7.240;2023-06-14T06:30:40;18.70;99.90
23259;DHT22;11798;51.528;7.240;2023-06-14T06:33:06;18.70;99.90
23259;DHT22;11798;51.528;7.240;2023-06-14T06:35:31;18.60;99.90
23259;DHT22;11798;51.528;7.240;2023-06-14T06:37:58;18.70;99.90
23259;DHT22;11798;51.528;7.240;2023-06-14T06:40:23;18.70;99.90
23259;DHT22;11798;51.528;7.240;2023-06-14T06:42:49;18.80;99.90
23259;DHT22;11798;51.528;7.240;2023-06-14T06:45:15;18.90;99.90
23259;DHT22;11798;51.528;7.240;2023-06-14T06:47:40;19.00;99.90
23259;DHT22;11798;51.528;7.240;2023-06-14T06:50:06;19.00;99.90
23259;DHT22;11798;51.528;7.240;2023-06-14T06:52:33;19.10;99.90
23259;DHT22;11798;51.528;7.240;2023-06-14T06:54:58;19.10;99.90
23259;DHT22;11798;51.528;7.240;2023-06-14T06:57:24;19.10;99.90
23259;DHT22;11798;51.528;7.240;2023-06-14T06:59:49;19.10;99.90
23259;DHT22;11798;51.528;7.240;2023-06-14T07:02:15;19.20;99.90
23259;DHT22;11798;51.528;7.240;2023-06-14T07:04:41;19.30;99.90
23259;DHT22;11798;51.528;7.240;2023-06-14T07:07:06;19.30;99.90
23259;DHT22;11798;51.528;7.240;2023-06-14T07:09:32;19.30;99.90
23259;DHT22;11798;51.528;7.240;2023-06-14T07:11:57;19.30;99.90
23259;DHT22;11798;51.528;7.240;2023-06-14T07:16:49;19.40;99.90
23259;DHT22;11798;51.528;7.240;2023-06-14T07:19:18;19.50;99.90
23259;DHT22;11798;51.528;7.240;2023-06-14T07:21:44;19.30;99.90
23259;DHT22;11798;51.528;7.240;2023-06-14T07:24:09;19.40;99.90
23259;DHT22;11798;51.528;7.240;2023-06-14T07:26:35;19.40;99.90
23259;DHT22;11798;51.528;7.240;2023-06-14T07:29:01;19.50;99.90
23259;DHT22;11798;51.528;7.240;2023-06-14T07:31:26;19.50;99.90
23259;DHT22;11798;51.528;7.240;2023-06-14T07:33:52;19.70;99.90
23259;DHT22;11798;51.528;7.240;2023-06-14T07:36:18;19.60;99.90
23259;DHT22;11798;51.528;7.240;2023-06-14T07:38:43;19.80;99.90
23259;DHT22;11798;51.528;7.240;2023-06-14T07:41:09;19.70;99.90
23259;DHT22;11798;51.528;7.240;2023-06-14T07:43:34;19.60;99.90
23259;DHT22;11798;51.528;7.240;2023-06-14T07:46:00;19.80;99.90
23259;DHT22;11798;51.528;7.240;2023-06-14T07:48:26;19.90;99.90
23259;DHT22;11798;51.528;7.240;2023-06-14T07:50:51;19.90;99.90
23259;DHT22;11798;51.528;7.240;2023-06-14T07:53:17;19.80;99.90
23259;DHT22;11798;51.528;7.240;2023-06-14T07:55:50;19.90;99.90
23259;DHT22;11798;51.528;7.240;2023-06-14T07:58:16;20.00;99.90
23259;DHT22;11798;51.528;7.240;2023-06-14T08:00:41;20.00;99.90
23259;DHT22;11798;51.528;7.240;2023-06-14T08:03:07;20.00;99.90
23259;DHT22;11798;51.528;7.240;2023-06-14T08:05:33;20.00;99.90
23259;DHT22;11798;51.528;7.240;2023-06-14T08:07:58;19.90;99.90
23259;DHT22;11798;51.528;7.240;2023-06-14T08:10:24;19.90;99.90
23259;DHT22;11798;51.528;7.240;2023-06-14T08:12:49;20.10;99.90
23259;DHT22;11798;51.528;7.240;2023-06-14T08:15:15;20.10;99.90
23259;DHT22;11798;51.528;7.240;2023-06-14T08:17:42;20.20;99.90
23259;DHT22;11798;51.528;7.240;2023-06-14T08:20:07;20.00;99.90
23259;DHT22;11798;51.528;7.240;2023-06-14T08:22:33;20.10;99.90
23259;DHT22;11798;51.528;7.240;2023-06-14T08:24:59;20.10;99.90
23259;DHT22;11798;51.528;7.240;2023-06-14T08:27:25;20.20;99.90
23259;DHT22;11798;51.528;7.240;2023-06-14T08:29:50;20.40;99.90
23259;DHT22;11798;51.528;7.240;2023-06-14T08:32:16;20.40;99.90
23259;DHT22;11798;51.528;7.240;2023-06-14T08:34:42;20.40;99.90
23259;DHT22;11798;51.528;7.240;2023-06-14T08:37:07;20.40;99.90
23259;DHT22;11798;51.528;7.240;2023-06-14T08:39:33;20.40;99.90
23259;DHT22;11798;51.528;7.240;2023-06-14T08:41:58;20.30;99.90
23259;DHT22;11798;51.528;7.240;2023-06-14T08:44:26;20.40;99.90
23259;DHT22;11798;51.528;7.240;2023-06-14T08:46:53;20.40;99.90
23259;DHT22;11798;51.528;7.240;2023-06-14T08:49:20;20.40;99.90
23259;DHT22;11798;51.528;7.240;2023-06-14T08:51:46;20.40;99.90
23259;DHT22;11798;51.528;7.240;2023-06-14T08:54:17;20.40;99.90
23259;DHT22;11798;51.528;7.240;2023-06-14T08:56:46;20.10;99.90
23259;DHT22;11798;51.528;7.240;2023-06-14T08:59:13;20.10;99.90
23259;DHT22;11798;51.528;7.240;2023-06-14T09:01:39;20.40;99.90
23259;DHT22;11798;51.528;7.240;2023-06-14T09:04:05;20.60;99.90
23259;DHT22;11798;51.528;7.240;2023-06-14T09:06:33;20.40;99.90
23259;DHT22;11798;51.528;7.240;2023-06-14T09:08:59;20.50;99.90
23259;DHT22;11798;51.528;7.240;2023-06-14T09:11:24;20.70;99.90
23259;DHT22;11798;51.528;7.240;2023-06-14T09:13:51;20.80;99.90
23259;DHT22;11798;51.528;7.240;2023-06-14T09:16:16;20.90;99.90
23259;DHT22;11798;51.528;7.240;2023-06-14T09:18:43;20.90;99.90
23259;DHT22;11798;51.528;7.240;2023-06-14T09:21:10;21.00;99.90
23259;DHT22;11798;51.528;7.240;2023-06-14T09:23:39;21.00;99.90
23259;DHT22;11798;51.528;7.240;2023-06-14T09:26:09;21.00;99.90
23259;DHT22;11798;51.528;7.240;2023-06-14T09:28:35;21.00;99.90
23259;DHT22;11798;51.528;7.240;2023-06-14T09:31:01;20.90;99.90
23259;DHT22;11798;51.528;7.240;2023-06-14T09:33:26;20.80;99.90
23259;DHT22;11798;51.528;7.240;2023-06-14T09:35:54;20.80;99.90
23259;DHT22;11798;51.528;7.240;2023-06-14T09:38:19;20.60;99.90
23259;DHT22;11798;51.528;7.240;2023-06-14T09:40:45;20.60;99.90
23259;DHT22;11798;51.528;7.240;2023-06-14T09:43:11;20.90;99.90
23259;DHT22;11798;51.528;7.240;2023-06-14T09:45:37;21.00;99.90
23259;DHT22;11798;51.528;7.240;2023-06-14T09:48:06;21.00;99.90
23259;DHT22;11798;51.528;7.240;2023-06-14T09:50:31;21.10;99.90
23259;DHT22;11798;51.528;7.240;2023-06-14T09:52:58;20.90;99.90
23259;DHT22;11798;51.528;7.240;2023-06-14T09:55:25;21.00;99.90
23259;DHT22;11798;51.528;7.240;2023-06-14T09:57:51;21.00;99.90
23259;DHT22;11798;51.528;7.240;2023-06-14T10:00:18;21.00;99.90
23259;DHT22;11798;51.528;7.240;2023-06-14T10:02:46;20.90;99.90
23259;DHT22;11798;51.528;7.240;2023-06-14T10:05:15;20.90;99.90
23259;DHT22;11798;51.528;7.240;2023-06-14T10:07:44;21.10;99.90
23259;DHT22;11798;51.528;7.240;2023-06-14T10:10:13;21.10;99.90
23259;DHT22;11798;51.528;7.240;2023-06-14T10:12:38;21.30;99.90
23259;DHT22;11798;51.528;7.240;2023-06-14T10:15:05;21.50;99.90
23259;DHT22;11798;51.528;7.240;2023-06-14T10:20:33;21.50;99.90
23259;DHT22;11798;51.528;7.240;2023-06-14T10:22:50;21.60;99.90
23259;DHT22;11798;51.528;7.240;2023-06-14T10:25:26;21.60;99.90
23259;DHT22;11798;51.528;7.240;2023-06-14T10:27:52;21.50;99.90
23259;DHT22;11798;51.528;7.240;2023-06-14T10:30:17;21.40;99.90
23259;DHT22;11798;51.528;7.240;2023-06-14T10:33:07;21.40;99.90
23259;DHT22;11798;51.528;7.240;2023-06-14T10:35:33;21.30;99.90
23259;DHT22;11798;51.528;7.240;2023-06-14T10:38:08;21.20;99.90
23259;DHT22;11798;51.528;7.240;2023-06-14T10:40:34;21.20;99.90
23259;DHT22;11798;51.528;7.240;2023-06-14T10:43:01;21.30;99.90
23259;DHT22;11798;51.528;7.240;2023-06-14T10:46:19;21.40;99.90
23259;DHT22;11798;51.528;7.240;2023-06-14T10:48:40;21.30;99.90
23259;DHT22;11798;51.528;7.240;2023-06-14T10:51:15;21.40;99.90
23259;DHT22;11798;51.528;7.240;2023-06-14T10:53:42;21.70;99.90
23259;DHT22;11798;51.528;7.240;2023-06-14T10:56:08;21.70;99.90
23259;DHT22;11798;51.528;7.240;2023-06-14T10:58:33;21.70;99.90
23259;DHT22;11798;51.528;7.240;2023-06-14T11:00:59;21.90;99.90
23259;DHT22;11798;51.528;7.240;2023-06-14T11:05:59;21.80;99.90
23259;DHT22;11798;51.528;7.240;2023-06-14T11:11:09;22.10;99.90
23259;DHT22;11798;51.528;7.240;2023-06-14T11:13:39;22.10;99.90
23259;DHT22;11798;51.528;7.240;2023-06-14T11:16:12;22.00;99.90
23259;DHT22;11798;51.528;7.240;2023-06-14T11:18:38;22.00;99.90
23259;DHT22;11798;51.528;7.240;2023-06-14T11:21:03;22.20;99.90
23259;DHT22;11798;51.528;7.240;2023-06-14T11:23:29;22.40;99.90
23259;DHT22;11798;51.528;7.240;2023-06-14T11:25:54;22.30;99.90
23259;DHT22;11798;51.528;7.240;2023-06-14T11:28:20;22.40;99.90
23259;DHT22;11798;51.528;7.240;2023-06-14T11:30:47;22.40;99.90
23259;DHT22;11798;51.528;7.240;2023-06-14T11:33:19;22.20;99.90
23259;DHT22;11798;51.528;7.240;2023-06-14T11:35:44;22.30;99.90
23259;DHT22;11798;51.528;7.240;2023-06-14T11:38:11;22.10;99.90
23259;DHT22;11798;51.528;7.240;2023-06-14T11:40:37;21.90;99.90
23259;DHT22;11798;51.528;7.240;2023-06-14T11:43:03;22.10;99.90
23259;DHT22;11798;51.528;7.240;2023-06-14T11:45:29;22.30;99.90
23259;DHT22;11798;51.528;7.240;2023-06-14T11:47:56;22.50;99.90
23259;DHT22;11798;51.528;7.240;2023-06-14T11:50:22;22.70;99.90
23259;DHT22;11798;51.528;7.240;2023-06-14T11:52:55;23.00;99.90
23259;DHT22;11798;51.528;7.240;2023-06-14T11:55:22;23.00;99.90
23259;DHT22;11798;51.528;7.240;2023-06-14T11:57:48;22.80;99.90
23259;DHT22;11798;51.528;7.240;2023-06-14T12:00:14;22.70;99.90
23259;DHT22;11798;51.528;7.240;2023-06-14T12:02:41;22.60;99.90
23259;DHT22;11798;51.528;7.240;2023-06-14T12:05:08;22.50;99.90
23259;DHT22;11798;51.528;7.240;2023-06-14T12:07:38;22.50;99.90
23259;DHT22;11798;51.528;7.240;2023-06-14T12:10:10;22.40;99.90
23259;DHT22;11798;51.528;7.240;2023-06-14T12:12:39;22.60;99.90
23259;DHT22;11798;51.528;7.240;2023-06-14T12:15:09;22.70;99.90
23259;DHT22;11798;51.528;7.240;2023-06-14T12:17:37;22.60;99.90
23259;DHT22;11798;51.528;7.240;2023-06-14T12:20:14;22.70;99.90
23259;DHT22;11798;51.528;7.240;2023-06-14T12:22:53;23.00;99.90
23259;DHT22;11798;51.528;7.240;2023-06-14T12:25:33;23.00;99.90
23259;DHT22;11798;51.528;7.240;2023-06-14T12:28:08;22.90;99.90
23259;DHT22;11798;51.528;7.240;2023-06-14T12:30:35;22.70;99.90
23259;DHT22;11798;51.528;7.240;2023-06-14T12:33:02;22.80;99.90
23259;DHT22;11798;51.528;7.240;2023-06-14T12:35:28;23.00;99.90
23259;DHT22;11798;51.528;7.240;2023-06-14T12:37:53;23.10;99.90
23259;DHT22;11798;51.528;7.240;2023-06-14T12:40:19;23.20;99.90
23259;DHT22;11798;51.528;7.240;2023-06-14T12:42:45;23.30;99.90
23259;DHT22;11798;51.528;7.240;2023-06-14T12:45:12;23.30;99.90
23259;DHT22;11798;51.528;7.240;2023-06-14T12:47:38;23.50;99.90
23259;DHT22;11798;51.528;7.240;2023-06-14T12:50:05;23.60;99.90
23259;DHT22;11798;51.528;7.240;2023-06-14T12:52:31;23.60;99.90
23259;DHT22;11798;51.528;7.240;2023-06-14T12:54:56;23.70;99.90
23259;DHT22;11798;51.528;7.240;2023-06-14T12:57:23;23.80;99.90
23259;DHT22;11798;51.528;7.240;2023-06-14T12:59:48;23.70;99.90
23259;DHT22;11798;51.528;7.240;2023-06-14T13:02:16;23.90;99.90
23259;DHT22;11798;51.528;7.240;2023-06-14T13:04:43;24.00;99.90
23259;DHT22;11798;51.528;7.240;2023-06-14T13:07:09;24.10;99.90
23259;DHT22;11798;51.528;7.240;2023-06-14T13:09:36;24.10;99.90
23259;DHT22;11798;51.528;7.240;2023-06-14T13:12:01;24.20;99.90
23259;DHT22;11798;51.528;7.240;2023-06-14T13:14:27;24.30;99.90
23259;DHT22;11798;51.528;7.240;2023-06-14T13:16:53;24.40;99.90
23259;DHT22;11798;51.528;7.240;2023-06-14T13:19:18;24.40;99.90
23259;DHT22;11798;51.528;7.240;2023-06-14T13:21:44;24.50;99.90
23259;DHT22;11798;51.528;7.240;2023-06-14T13:24:09;24.20;99.90
23259;DHT22;11798;51.528;7.240;2023-06-14T13:26:35;24.00;99.90
23259;DHT22;11798;51.528;7.240;2023-06-14T13:29:01;24.20;99.90
23259;DHT22;11798;51.528;7.240;2023-06-14T13:31:26;24.40;99.90
23259;DHT22;11798;51.528;7.240;2023-06-14T13:33:52;24.30;99.90
23259;DHT22;11798;51.528;7.240;2023-06-14T13:36:17;24.30;99.90
23259;DHT22;11798;51.528;7.240;2023-06-14T13:38:43;24.40;99.90
23259;DHT22;11798;51.528;7.240;2023-06-14T13:41:09;24.30;99.90
23259;DHT22;11798;51.528;7.240;2023-06-14T13:43:34;24.40;99.90
23259;DHT22;11798;51.528;7.240;2023-06-14T13:46:00;24.50;99.90
23259;DHT22;11798;51.528;7.240;2023-06-14T13:48:26;24.40;99.90
23259;DHT22;11798;51.528;7.240;2023-06-14T13:50:51;24.60;99.90
23259;DHT22;11798;51.528;7.240;2023-06-14T13:53:17;24.90;99.90
23259;DHT22;11798;51.528;7.240;2023-06-14T13:55:43;25.00;99.90
23259;DHT22;11798;51.528;7.240;2023-06-14T13:58:08;25.00;99.90
23259;DHT22;11798;51.528;7.240;2023-06-14T14:00:34;25.10;99.90
23259;DHT22;11798;51.528;7.240;2023-06-14T14:03:02;25.20;99.90
23259;DHT22;11798;51.528;7.240;2023-06-14T14:05:28;25.10;99.90
23259;DHT22;11798;51.528;7.240;2023-06-14T14:07:55;25.00;99.90
23259;DHT22;11798;51.528;7.240;2023-06-14T14:10:22;25.10;99.90
23259;DHT22;11798;51.528;7.240;2023-06-14T14:12:48;25.40;99.90
23259;DHT22;11798;51.528;7.240;2023-06-14T14:15:14;25.40;99.90
23259;DHT22;11798;51.528;7.240;2023-06-14T14:17:40;25.60;99.90
23259;DHT22;11798;51.528;7.240;2023-06-14T14:20:07;25.10;99.90
23259;DHT22;11798;51.528;7.240;2023-06-14T14:22:32;25.20;99.90
23259;DHT22;11798;51.528;7.240;2023-06-14T14:24:58;25.60;99.90
23259;DHT22;11798;51.528;7.240;2023-06-14T14:27:23;25.50;99.90
23259;DHT22;11798;51.528;7.240;2023-06-14T14:29:49;25.40;99.90
23259;DHT22;11798;51.528;7.240;2023-06-14T14:32:15;25.70;99.90
23259;DHT22;11798;51.528;7.240;2023-06-14T14:34:41;25.90;99.90
23259;DHT22;11798;51.528;7.240;2023-06-14T14:37:06;26.20;99.90
23259;DHT22;11798;51.528;7.240;2023-06-14T14:39:32;26.40;99.90
23259;DHT22;11798;51.528;7.240;2023-06-14T14:41:57;26.30;99.90
23259;DHT22;11798;51.528;7.240;2023-06-14T14:44:23;26.60;99.90
23259;DHT22;11798;51.528;7.240;2023-06-14T14:46:48;26.50;99.90
23259;DHT22;11798;51.528;7.240;2023-06-14T14:49:14;26.40;99.90
23259;DHT22;11798;51.528;7.240;2023-06-14T14:51:39;26.40;99.90
23259;DHT22;11798;51.528;7.240;2023-06-14T14:54:05;26.40;99.90
23259;DHT22;11798;51.528;7.240;2023-06-14T14:56:31;26.60;99.10
23259;DHT22;11798;51.528;7.240;2023-06-14T14:58:56;26.80;99.90
23259;DHT22;11798;51.528;7.240;2023-06-14T15:01:22;26.60;99.20
23259;DHT22;11798;51.528;7.240;2023-06-14T15:03:48;26.90;99.90
23259;DHT22;11798;51.528;7.240;2023-06-14T15:06:13;27.30;99.70
23259;DHT22;11798;51.528;7.240;2023-06-14T15:08:39;27.50;98.60
23259;DHT22;11798;51.528;7.240;2023-06-14T15:11:04;27.50;98.80
23259;DHT22;11798;51.528;7.240;2023-06-14T15:13:30;27.10;98.10
23259;DHT22;11798;51.528;7.240;2023-06-14T15:15:55;27.00;98.00
23259;DHT22;11798;51.528;7.240;2023-06-14T15:18:21;27.00;97.60
23259;DHT22;11798;51.528;7.240;2023-06-14T15:20:47;26.70;97.70
23259;DHT22;11798;51.528;7.240;2023-06-14T15:23:13;27.00;97.70
23259;DHT22;11798;51.528;7.240;2023-06-14T15:25:44;27.20;98.00
23259;DHT22;11798;51.528;7.240;2023-06-14T15:28:10;27.90;97.70
23259;DHT22;11798;51.528;7.240;2023-06-14T15:30:36;28.00;97.10
23259;DHT22;11798;51.528;7.240;2023-06-14T15:33:01;28.10;97.50
23259;DHT22;11798;51.528;7.240;2023-06-14T15:35:27;28.20;97.50
23259;DHT22;11798;51.528;7.240;2023-06-14T15:37:52;28.20;95.80
23259;DHT22;11798;51.528;7.240;2023-06-14T15:40:18;28.10;96.10